Time;durP1;ratioP1;P1;durP2;ratioP2;P2;SDS_P1;SDS_P2;PMS_P1;PMS_P2;Temp;Humidity;BMP_temperature;BMP_pressure;BME280_temperature;BME280_humidity;BME280_pressure;Samples;Min_cycle;Max_cycle;Signal;HPM_P1;HPM_P2
2023/12/10 00:04:30;;;;;;;5.43;2.60;;;;;;;17.93;55.65;95929.44;10404282;28;20053;-31
2023/12/10 00:09:31;;;;;;;4.97;2.17;;;;;;;17.95;55.80;95927.75;10413136;28;20292;-30
2023/12/10 00:14:31;;;;;;;4.00;2.30;;;;;;;17.95;55.88;95949.69;10412100;28;20113;-30
2023/12/10 00:19:33;;;;;;;5.97;2.60;;;;;;;17.93;55.84;95969.97;10406291;28;20459;-30
2023/12/10 00:24:33;;;;;;;5.43;2.45;;;;;;;17.96;55.50;95974.16;10410363;28;20095;-31
2023/12/10 00:29:33;;;;;;;4.23;2.20;;;;;;;17.91;55.58;95983.53;10400277;28;20645;-31
2023/12/10 00:34:34;;;;;;;3.90;2.43;;;;;;;17.92;55.93;96005.47;10405900;28;20551;-30
2023/12/10 00:39:35;;;;;;;4.50;2.15;;;;;;;17.96;55.64;96024.81;10405809;28;20034;-31
2023/12/10 00:44:36;;;;;;;6.32;2.65;;;;;;;17.94;55.45;96036.66;10408654;28;20040;-30
2023/12/10 00:49:36;;;;;;;4.33;2.57;;;;;;;17.91;55.62;96041.75;10406617;28;20561;-30
2023/12/10 00:54:36;;;;;;;4.70;1.88;;;;;;;17.92;55.93;96051.03;10408818;28;20112;-30
2023/12/10 00:59:37;;;;;;;4.93;2.40;;;;;;;17.89;55.78;96058.63;10407443;28;20037;-32
2023/12/10 01:04:37;;;;;;;5.73;3.43;;;;;;;17.91;56.09;96062.03;10405912;28;20087;-30
2023/12/10 01:09:38;;;;;;;6.20;2.70;;;;;;;17.89;55.83;96069.63;10408482;28;20128;-32
2023/12/10 01:14:39;;;;;;;4.43;2.20;;;;;;;17.88;55.73;96082.28;10404591;28;20029;-31
2023/12/10 01:19:39;;;;;;;4.28;1.92;;;;;;;17.85;55.68;96064.59;10405492;28;20029;-30
2023/12/10 01:24:39;;;;;;;3.60;1.90;;;;;;;17.85;55.93;96067.97;10408510;28;20037;-31
2023/12/10 01:29:40;;;;;;;3.40;1.87;;;;;;;17.84;55.82;96076.41;10399156;28;20029;-31
2023/12/10 01:34:43;;;;;;;3.60;2.20;;;;;;;17.84;56.04;96086.53;10405151;28;20049;-31
2023/12/10 01:39:43;;;;;;;4.93;1.95;;;;;;;17.85;56.21;96084.84;10401049;28;20036;-30
2023/12/10 01:44:44;;;;;;;7.40;1.77;;;;;;;17.77;56.11;96091.66;10401412;28;20038;-30
2023/12/10 01:49:46;;;;;;;4.97;1.77;;;;;;;17.83;55.97;96104.28;10404293;28;20048;-31
2023/12/10 01:54:49;;;;;;;5.65;2.30;;;;;;;17.81;56.10;96122.00;10407644;28;20030;-31
2023/12/10 01:59:50;;;;;;;4.70;2.17;;;;;;;17.83;56.44;96138.03;10398611;28;20605;-30
2023/12/10 02:04:54;;;;;;;5.38;1.90;;;;;;;17.80;56.34;96150.72;10392569;28;20168;-31
2023/12/10 02:09:55;;;;;;;6.03;2.00;;;;;;;17.79;56.24;96156.63;10401966;28;20036;-30
2023/12/10 02:14:55;;;;;;;4.07;2.50;;;;;;;17.79;56.51;96155.78;10397173;28;20108;-30
2023/12/10 02:19:56;;;;;;;5.30;2.60;;;;;;;17.77;56.32;96144.81;10398785;28;20452;-30
2023/12/10 02:25:01;;;;;;;3.33;1.70;;;;;;;17.76;56.17;96159.16;10404397;28;20304;-31
2023/12/10 02:30:02;;;;;;;4.35;2.13;;;;;;;17.76;56.43;96163.41;10404985;28;20492;-31
2023/12/10 02:35:03;;;;;;;2.50;1.63;;;;;;;17.76;56.01;96149.03;10394982;28;20120;-31
2023/12/10 02:40:05;;;;;;;3.90;1.73;;;;;;;17.76;56.39;96163.41;10397509;28;20131;-31
2023/12/10 02:45:05;;;;;;;5.00;1.90;;;;;;;17.76;56.36;96168.47;10405117;28;20041;-31
2023/12/10 02:50:07;;;;;;;2.85;1.63;;;;;;;17.75;56.26;96181.97;10404588;28;20025;-32
2023/12/10 02:55:10;;;;;;;3.35;1.73;;;;;;;17.70;56.41;96174.41;10406879;28;20068;-32
2023/12/10 03:00:11;;;;;;;3.67;2.17;;;;;;;17.74;56.34;96195.50;10410030;28;20045;-31
2023/12/10 03:05:11;;;;;;;3.47;1.95;;;;;;;17.73;56.39;96199.69;10406753;28;20404;-31
2023/12/10 03:10:12;;;;;;;2.57;1.93;;;;;;;17.72;56.46;96225.88;10402277;28;20033;-31
2023/12/10 03:15:12;;;;;;;3.28;1.77;;;;;;;17.73;56.42;96219.97;10412981;28;20120;-31
2023/12/10 03:20:15;;;;;;;3.78;1.60;;;;;;;17.74;56.38;96236.00;10400602;28;20033;-30
2023/12/10 03:25:15;;;;;;;5.18;1.92;;;;;;;17.74;56.23;96229.22;10410763;28;20116;-30
2023/12/10 03:30:16;;;;;;;6.43;3.10;;;;;;;17.74;56.05;96233.47;10407000;28;20040;-31
2023/12/10 03:35:16;;;;;;;3.73;1.67;;;;;;;17.74;56.25;96241.06;10406926;28;20400;-32
2023/12/10 03:40:17;;;;;;;3.30;1.70;;;;;;;17.72;56.28;96253.72;10400657;28;20346;-30
2023/12/10 03:45:17;;;;;;;4.30;2.08;;;;;;;17.74;56.21;96266.38;10411518;28;20037;-30
2023/12/10 03:50:18;;;;;;;3.57;1.53;;;;;;;17.76;56.14;96274.81;10403618;28;20037;-30
2023/12/10 03:55:18;;;;;;;3.63;1.58;;;;;;;17.74;56.15;96271.44;10403508;28;20029;-31
2023/12/10 04:00:19;;;;;;;4.87;2.23;;;;;;;17.73;56.27;96279.91;10407593;28;20542;-31
2023/12/10 04:05:20;;;;;;;3.78;1.52;;;;;;;17.73;56.35;96274.84;10404431;28;20042;-31
2023/12/10 04:10:20;;;;;;;2.55;1.65;;;;;;;17.73;56.39;96284.97;10403122;28;20091;-31
2023/12/10 04:15:20;;;;;;;4.83;1.67;;;;;;;17.72;56.48;96288.31;10401448;28;20088;-31
2023/12/10 04:20:21;;;;;;;3.50;1.87;;;;;;;17.62;56.55;96281.59;10406387;28;20361;-30
2023/12/10 04:25:21;;;;;;;3.47;1.63;;;;;;;17.70;56.47;96310.25;10402149;28;20480;-30
2023/12/10 04:30:24;;;;;;;4.33;1.60;;;;;;;17.70;56.29;96302.66;10398146;28;20446;-31
2023/12/10 04:35:24;;;;;;;5.15;1.70;;;;;;;17.70;56.34;96320.38;10400653;28;20033;-31
2023/12/10 04:40:24;;;;;;;6.68;2.72;;;;;;;17.67;56.35;96307.75;10402054;28;20037;-29
2023/12/10 04:45:25;;;;;;;2.80;1.60;;;;;;;17.69;56.73;96328.84;10403488;28;20038;-31
2023/12/10 04:50:25;;;;;;;2.60;1.47;;;;;;;17.59;56.74;96322.13;10404817;28;20033;-33
2023/12/10 04:55:25;;;;;;;4.40;1.83;;;;;;;17.65;56.61;96353.31;10396078;28;20514;-31
2023/12/10 05:00:26;;;;;;;4.07;1.60;;;;;;;17.67;56.65;96340.66;10408123;28;20045;-31
2023/12/10 05:05:26;;;;;;;3.23;1.10;;;;;;;17.66;56.71;96333.91;10393903;28;20044;-30
2023/12/10 05:10:29;;;;;;;3.72;1.48;;;;;;;17.66;56.68;96338.97;10406426;28;20040;-31
2023/12/10 05:15:29;;;;;;;5.45;1.38;;;;;;;17.64;56.27;96330.53;10400354;28;20034;-31
2023/12/10 05:20:30;;;;;;;3.73;1.40;;;;;;;17.64;56.59;96344.03;10398682;28;20099;-32
2023/12/10 05:25:30;;;;;;;2.05;1.30;;;;;;;17.64;56.56;96341.50;10407574;28;20034;-31
2023/12/10 05:30:31;;;;;;;6.15;1.58;;;;;;;17.62;56.73;96348.28;10401015;28;20025;-31
2023/12/10 05:35:32;;;;;;;3.10;1.50;;;;;;;17.64;56.48;96371.88;10400986;28;20045;-31
2023/12/10 05:40:32;;;;;;;7.18;1.70;;;;;;;17.64;56.47;96374.41;10399927;28;20431;-30
2023/12/10 05:45:33;;;;;;;5.30;2.37;;;;;;;17.64;56.61;96376.09;10398390;28;20041;-31
2023/12/10 05:50:33;;;;;;;3.57;1.33;;;;;;;17.64;56.33;96383.69;10401581;28;20156;-31
2023/12/10 05:55:34;;;;;;;3.33;1.53;;;;;;;17.63;56.42;96397.19;10404757;28;20100;-32
2023/12/10 06:00:34;;;;;;;5.03;2.08;;;;;;;17.66;56.28;96404.81;10406415;28;20095;-31
2023/12/10 06:05:34;;;;;;;2.53;1.27;;;;;;;17.61;56.65;96404.81;10393526;28;20052;-30
2023/12/10 06:10:35;;;;;;;5.27;1.70;;;;;;;17.66;56.40;96422.53;10398709;28;20121;-30
2023/12/10 06:15:35;;;;;;;3.63;1.63;;;;;;;17.64;56.31;96426.72;10399419;28;20041;-30
2023/12/10 06:20:35;;;;;;;2.38;1.40;;;;;;;17.70;56.25;96446.97;10399532;28;20037;-31
2023/12/10 06:25:38;;;;;;;5.60;1.70;;;;;;;17.74;55.92;96443.59;10408146;28;20041;-31
2023/12/10 06:30:39;;;;;;;3.20;1.20;;;;;;;17.79;55.04;96439.34;10410862;28;20053;-30
2023/12/10 06:35:40;;;;;;;2.88;1.52;;;;;;;17.79;55.55;96436.81;10409252;28;20711;-32
2023/12/10 06:40:40;;;;;;;2.87;1.30;;;;;;;17.82;55.30;96449.50;10410945;28;20028;-30
2023/12/10 06:45:41;;;;;;;2.63;1.30;;;;;;;17.83;55.43;96462.16;10409201;28;20029;-32
2023/12/10 06:50:41;;;;;;;3.53;1.10;;;;;;;17.82;55.83;96465.53;10409559;28;20037;-30
2023/12/10 06:55:41;;;;;;;4.53;1.40;;;;;;;17.82;55.63;96473.13;10410838;28;20035;-31
2023/12/10 07:00:42;;;;;;;3.20;1.13;;;;;;;17.81;55.67;96489.16;10398907;28;20502;-31
2023/12/10 07:05:42;;;;;;;2.63;1.40;;;;;;;17.81;55.77;96491.69;10400317;28;20561;-31
2023/12/10 07:10:43;;;;;;;3.83;1.30;;;;;;;17.79;55.67;96497.59;10411170;28;20116;-31
2023/12/10 07:15:45;;;;;;;4.57;1.67;;;;;;;17.82;55.15;96506.03;10412174;28;20040;-31
2023/12/10 07:20:46;;;;;;;7.70;2.08;;;;;;;17.80;55.06;96497.59;10404545;28;20297;-30
2023/12/10 07:25:46;;;;;;;3.53;1.10;;;;;;;17.80;55.68;96500.13;10402697;28;20377;-31
2023/12/10 07:30:46;;;;;;;3.70;1.37;;;;;;;17.82;55.70;96507.75;10394034;28;20033;-31
2023/12/10 07:35:47;;;;;;;2.67;1.20;;;;;;;17.80;56.01;96519.53;10409470;28;20034;-31
2023/12/10 07:40:47;;;;;;;5.45;1.90;;;;;;;17.76;55.92;96502.69;10411108;28;20060;-31
2023/12/10 07:45:48;;;;;;;4.67;1.40;;;;;;;17.76;56.33;96512.81;10391221;28;20041;-30
2023/12/10 07:50:48;;;;;;;3.63;1.53;;;;;;;17.74;55.83;96517.84;10399393;28;20034;-31
2023/12/10 07:55:48;;;;;;;4.72;1.88;;;;;;;17.79;55.82;96511.13;10400889;28;20487;-31
2023/12/10 08:00:49;;;;;;;7.73;1.73;;;;;;;17.77;55.83;96529.69;10417572;28;20029;-30
2023/12/10 08:05:50;;;;;;;3.83;1.92;;;;;;;17.73;55.83;96508.56;10394140;28;20037;-31
2023/12/10 08:10:50;;;;;;;5.33;1.70;;;;;;;17.73;55.83;96502.69;10400563;28;20056;-31
2023/12/10 08:15:50;;;;;;;5.07;1.83;;;;;;;17.73;55.70;96522.94;10401536;28;20303;-32
2023/12/10 08:20:51;;;;;;;4.33;2.17;;;;;;;17.72;55.71;96533.88;10399384;28;20025;-30
2023/12/10 08:25:51;;;;;;;3.97;2.03;;;;;;;17.72;55.55;96531.34;10406576;28;20287;-31
2023/12/10 08:30:52;;;;;;;7.93;2.90;;;;;;;17.74;55.74;96522.09;10394630;28;20095;-33
2023/12/10 08:35:52;;;;;;;5.75;3.05;;;;;;;17.78;55.95;96526.31;10406442;28;20048;-30
2023/12/10 08:40:53;;;;;;;18.67;10.10;;;;;;;17.79;55.31;96533.06;10408722;28;20033;-30
2023/12/10 08:45:54;;;;;;;22.90;16.20;;;;;;;17.75;54.95;96536.44;10402697;28;20488;-31
2023/12/10 08:50:54;;;;;;;36.47;17.38;;;;;;;17.80;53.72;96557.53;10389304;28;20291;-30
2023/12/10 08:55:55;;;;;;;26.73;14.80;;;;;;;17.76;53.44;96551.63;10404173;28;20027;-31
2023/12/10 09:00:55;;;;;;;24.47;14.00;;;;;;;17.76;54.34;96564.28;10392561;28;20044;-30
2023/12/10 09:05:57;;;;;;;24.40;13.37;;;;;;;17.76;54.38;96561.75;10389772;28;20036;-30
2023/12/10 09:11:03;;;;;;;20.17;13.38;;;;;;;17.81;54.54;96587.06;10402143;28;20179;-30
2023/12/10 09:16:06;;;;;;;24.50;14.65;;;;;;;17.79;54.21;96596.34;10398228;28;20040;-30
2023/12/10 09:21:07;;;;;;;24.67;17.15;;;;;;;17.79;54.71;96593.81;10398624;28;20036;-31
2023/12/10 09:26:08;;;;;;;19.30;12.85;;;;;;;17.79;54.48;96593.81;10393842;28;20033;-30
2023/12/10 09:31:08;;;;;;;24.07;15.27;;;;;;;17.77;54.35;96605.66;10390340;28;20116;-30
2023/12/10 09:36:09;;;;;;;25.07;15.33;;;;;;;17.75;54.73;96604.81;10388845;28;20033;-32
2023/12/10 09:41:09;;;;;;;28.98;18.08;;;;;;;17.69;55.08;96608.19;10402401;28;20034;-30
2023/12/10 09:46:09;;;;;;;31.37;15.80;;;;;;;17.72;55.14;96597.19;10395141;28;20041;-30
2023/12/10 09:51:09;;;;;;;28.67;16.80;;;;;;;17.74;54.58;96605.66;10397317;28;20131;-30
2023/12/10 09:56:10;;;;;;;23.63;16.33;;;;;;;17.71;54.45;96590.44;10388948;28;20033;-31
2023/12/10 10:01:13;;;;;;;20.77;14.02;;;;;;;17.74;54.16;96577.81;10392266;28;20040;-30
2023/12/10 10:06:13;;;;;;;23.77;14.82;;;;;;;17.75;54.78;96574.41;10399143;28;20139;-30
2023/12/10 10:11:13;;;;;;;29.93;15.33;;;;;;;17.73;54.01;96550.78;10407023;28;20141;-31
2023/12/10 10:16:14;;;;;;;24.00;14.67;;;;;;;17.76;54.15;96563.44;10409058;28;20459;-32
2023/12/10 10:21:15;;;;;;;22.60;13.52;;;;;;;17.81;53.96;96584.53;10408004;28;20045;-30
2023/12/10 10:26:15;;;;;;;23.35;14.60;;;;;;;17.82;54.03;96583.72;10409361;28;20041;-30
2023/12/10 10:31:16;;;;;;;22.30;14.53;;;;;;;17.82;53.82;96593.84;10408854;28;20044;-31
2023/12/10 10:36:18;;;;;;;26.25;15.70;;;;;;;17.82;53.94;96593.84;10391999;28;20030;-30
2023/12/10 10:41:19;;;;;;;27.33;15.13;;;;;;;17.82;53.94;96578.66;10406744;28;20032;-31
2023/12/10 10:46:20;;;;;;;20.63;13.53;;;;;;;17.84;53.55;96564.28;10400464;28;20037;-30
2023/12/10 10:51:24;;;;;;;30.25;16.40;;;;;;;17.81;54.02;96531.34;10400510;28;20092;-31
2023/12/10 10:56:25;;;;;;;32.25;16.58;;;;;;;17.86;54.46;96532.22;10394526;28;20096;-30
2023/12/10 11:01:42;;;;;;;26.70;16.88;;;;;;;17.81;53.99;96521.22;10397568;28;20120;-30
2023/12/10 11:06:45;;;;;;;27.05;15.48;;;;;;;17.89;54.17;96537.25;10390663;28;20045;-30
2023/12/10 11:11:46;;;;;;;31.88;18.92;;;;;;;17.83;54.21;96543.19;10394011;28;20057;-30
2023/12/10 11:16:55;;;;;;;33.23;17.13;;;;;;;17.91;54.72;96528.00;10398531;28;20385;-30
2023/12/10 11:21:56;;;;;;;36.63;19.52;;;;;;;17.89;56.46;96534.72;10390549;28;20284;-30
2023/12/10 11:26:58;;;;;;;31.92;17.13;;;;;;;17.78;55.78;96533.91;10393926;28;20121;-30
2023/12/10 11:31:59;;;;;;;23.30;9.80;;;;;;;17.58;51.65;96549.06;10393157;28;20077;-30
2023/12/10 11:36:59;;;;;;;24.23;7.68;;;;;;;17.45;49.83;96552.47;10390851;28;20158;-30
2023/12/10 11:42:00;;;;;;;19.37;7.87;;;;;;;17.58;50.65;96563.44;10398610;28;20033;-31
2023/12/10 11:47:05;;;;;;;21.60;8.87;;;;;;;17.61;51.80;96553.31;10394829;28;20048;-30
2023/12/10 11:52:05;;;;;;;20.23;8.75;;;;;;;17.66;52.81;96579.47;10397934;28;20471;-31
2023/12/10 11:57:05;;;;;;;22.57;8.63;;;;;;;17.69;53.10;96576.94;10394468;28;20116;-33
2023/12/10 12:02:06;;;;;;;19.85;8.77;;;;;;;17.67;53.39;96560.91;10387156;28;20762;-30
2023/12/10 12:07:07;;;;;;;17.77;8.30;;;;;;;17.73;53.47;96555.84;10392284;28;20418;-30
2023/12/10 12:12:08;;;;;;;17.63;7.70;;;;;;;17.71;53.96;96544.88;10395218;28;20469;-31
2023/12/10 12:17:08;;;;;;;14.73;7.68;;;;;;;17.74;53.63;96532.22;10394849;28;20025;-31
2023/12/10 12:22:10;;;;;;;14.00;7.30;;;;;;;17.73;53.63;96533.91;10385302;28;20044;-30
2023/12/10 12:27:13;;;;;;;15.00;7.45;;;;;;;17.76;53.71;96538.13;10390789;28;20315;-31
2023/12/10 12:32:13;;;;;;;16.30;7.18;;;;;;;17.77;53.76;96522.09;10390096;28;20033;-31
2023/12/10 12:37:14;;;;;;;13.17;6.43;;;;;;;17.74;53.90;96511.97;10389679;28;20045;-31
2023/12/10 12:42:14;;;;;;;13.23;7.50;;;;;;;17.74;54.42;96512.78;10404034;28;20291;-29
2023/12/10 12:47:15;;;;;;;14.37;7.97;;;;;;;17.75;54.05;96511.94;10388302;28;20070;-31
2023/12/10 12:52:15;;;;;;;12.48;6.97;;;;;;;17.77;54.40;96499.28;10386074;28;20045;-31
2023/12/10 12:57:16;;;;;;;14.50;7.33;;;;;;;17.76;54.66;96495.09;10390796;28;20029;-31
2023/12/10 13:02:18;;;;;;;13.95;7.90;;;;;;;17.76;53.86;96482.41;10385680;28;20276;-31
2023/12/10 13:07:18;;;;;;;16.05;7.90;;;;;;;17.81;54.11;96483.25;10398736;28;20163;-30
2023/12/10 13:12:19;;;;;;;26.77;8.65;;;;;;;17.76;55.41;96467.22;10401946;28;20029;-31
2023/12/10 13:17:20;;;;;;;13.80;8.00;;;;;;;17.81;55.24;96465.50;10399020;28;20032;-30
2023/12/10 13:22:20;;;;;;;13.48;7.32;;;;;;;17.82;54.83;96452.03;10390721;28;20287;-31
2023/12/10 13:27:20;;;;;;;16.20;8.00;;;;;;;17.84;55.21;96451.16;10394633;28;20042;-31
2023/12/10 13:32:21;;;;;;;13.93;6.93;;;;;;;17.85;55.17;96454.56;10405005;28;20029;-30
2023/12/10 13:37:21;;;;;;;15.50;7.57;;;;;;;17.87;55.19;96442.72;10400738;28;20108;-30
2023/12/10 13:42:22;;;;;;;15.45;8.63;;;;;;;17.83;55.36;96449.47;10394501;28;20482;-30
2023/12/10 13:47:22;;;;;;;15.07;8.02;;;;;;;17.85;54.96;96447.81;10404032;28;20396;-30
2023/12/10 13:52:22;;;;;;;14.87;6.63;;;;;;;17.82;54.92;96457.94;10388835;28;20025;-31
2023/12/10 13:57:23;;;;;;;15.73;6.97;;;;;;;17.84;54.95;96445.28;10381878;28;20080;-31
2023/12/10 14:02:27;;;;;;;19.23;6.47;;;;;;;17.85;54.55;96439.34;10391037;28;20430;-31
2023/12/10 14:07:30;;;;;;;10.55;5.95;;;;;;;17.84;54.78;96445.28;10378844;28;20429;-33
2023/12/10 14:12:30;;;;;;;12.88;6.70;;;;;;;17.86;54.71;96449.50;10397282;28;20041;-30
2023/12/10 14:17:31;;;;;;;11.00;6.57;;;;;;;17.81;55.81;96446.13;10395784;28;20687;-31
2023/12/10 14:22:32;;;;;;;13.77;7.17;;;;;;;17.81;56.78;96448.66;10386878;28;20645;-30
2023/12/10 14:27:32;;;;;;;26.48;7.05;;;;;;;17.76;55.81;96427.53;10379776;28;20037;-30
2023/12/10 14:32:33;;;;;;;10.93;5.47;;;;;;;17.86;55.08;96420.78;10381087;28;20048;-31
2023/12/10 14:37:33;;;;;;;16.13;6.87;;;;;;;17.86;55.19;96408.13;10390976;28;20279;-31
2023/12/10 14:42:33;;;;;;;14.88;6.03;;;;;;;17.85;54.98;96407.28;10387127;28;20040;-31
2023/12/10 14:47:35;;;;;;;12.17;6.77;;;;;;;17.86;55.26;96403.06;10391029;28;20037;-30
2023/12/10 14:52:35;;;;;;;16.48;5.95;;;;;;;17.92;55.76;96390.38;10402112;28;20033;-30
2023/12/10 14:57:37;;;;;;;14.90;7.05;;;;;;;17.93;58.00;96395.44;10404318;28;20038;-31
2023/12/10 15:02:37;;;;;;;14.55;5.63;;;;;;;17.75;52.66;96382.81;10396443;28;20048;-34
2023/12/10 15:07:41;;;;;;;15.70;5.80;;;;;;;17.80;53.17;96380.28;10382826;28;20523;-30
2023/12/10 15:12:42;;;;;;;15.43;5.82;;;;;;;17.86;53.82;96387.84;10387319;28;20025;-30
2023/12/10 15:17:42;;;;;;;18.40;8.57;;;;;;;17.86;55.01;96382.78;10388018;28;20026;-32
2023/12/10 15:22:43;;;;;;;15.73;6.30;;;;;;;17.80;55.27;96372.69;10387179;28;20030;-30
2023/12/10 15:27:43;;;;;;;20.17;6.43;;;;;;;17.80;55.15;96382.81;10389951;28;20651;-31
2023/12/10 15:32:46;;;;;;;11.13;5.90;;;;;;;17.84;55.51;96377.72;10395881;28;20498;-30
2023/12/10 15:37:47;;;;;;;17.88;6.05;;;;;;;17.85;55.33;96358.31;10398341;28;20064;-30
2023/12/10 15:42:47;;;;;;;11.50;5.73;;;;;;;17.85;55.45;96371.84;10393487;28;20116;-30
2023/12/10 15:47:47;;;;;;;12.57;5.57;;;;;;;17.86;55.54;96367.59;10387772;28;21661;-30
2023/12/10 15:52:48;;;;;;;14.30;5.67;;;;;;;17.85;55.57;96355.78;10384568;28;20092;-31
2023/12/10 15:57:48;;;;;;;12.13;6.43;;;;;;;17.83;55.82;96322.03;10386270;28;20288;-30
2023/12/10 16:02:49;;;;;;;11.70;5.03;;;;;;;17.84;55.61;96327.09;10387357;28;20663;-30
2023/12/10 16:07:50;;;;;;;12.13;5.03;;;;;;;17.85;55.67;96330.47;10385565;28;20038;-30
2023/12/10 16:12:50;;;;;;;9.07;4.53;;;;;;;17.84;55.52;96308.53;10395249;28;20041;-30
2023/12/10 16:17:51;;;;;;;7.93;4.43;;;;;;;17.82;55.30;96295.88;10384663;28;20476;-30
2023/12/10 16:22:51;;;;;;;10.37;5.63;;;;;;;17.82;55.52;96268.00;10387416;28;20288;-30
2023/12/10 16:27:51;;;;;;;8.63;4.90;;;;;;;17.79;55.11;96259.59;10388632;28;20116;-30
2023/12/10 16:32:53;;;;;;;10.07;4.63;;;;;;;17.71;54.68;96251.19;10384489;28;20029;-30
2023/12/10 16:37:53;;;;;;;14.70;5.38;;;;;;;17.79;54.29;96234.28;10389426;28;20060;-30
2023/12/10 16:42:55;;;;;;;6.10;3.57;;;;;;;17.77;55.95;96225.84;10400450;28;20025;-30
2023/12/10 16:47:55;;;;;;;11.15;4.68;;;;;;;17.72;56.07;96194.63;10385670;28;20430;-30
2023/12/10 16:52:55;;;;;;;10.77;4.00;;;;;;;17.74;55.97;96215.75;10407231;28;20037;-30
2023/12/10 16:57:56;;;;;;;6.97;3.93;;;;;;;17.71;56.41;96195.50;10399349;28;20025;-30
2023/12/10 17:02:56;;;;;;;7.13;3.90;;;;;;;17.72;56.29;96190.44;10395139;28;20033;-30
2023/12/10 17:07:57;;;;;;;7.13;4.47;;;;;;;17.67;56.40;96168.53;10399646;28;20057;-30
2023/12/10 17:12:59;;;;;;;7.60;4.43;;;;;;;17.67;56.37;96163.47;10398632;28;20055;-32
2023/12/10 17:17:59;;;;;;;8.70;4.13;;;;;;;17.65;56.30;96149.97;10402609;28;20038;-31
2023/12/10 17:23:00;;;;;;;5.75;3.78;;;;;;;17.63;56.34;96187.09;10398256;28;20037;-31
2023/12/10 17:28:01;;;;;;;6.15;4.28;;;;;;;17.62;56.56;96193.88;10404594;28;20076;-31
2023/12/10 17:33:01;;;;;;;5.57;3.60;;;;;;;17.63;56.18;96152.50;10390594;28;20041;-31
2023/12/10 17:38:01;;;;;;;7.83;4.50;;;;;;;17.63;56.24;96147.44;10396060;28;20045;-30
2023/12/10 17:43:03;;;;;;;6.60;3.80;;;;;;;17.61;56.38;96140.72;10402731;28;20288;-30
2023/12/10 17:48:03;;;;;;;6.60;3.55;;;;;;;17.62;56.17;96119.59;10393507;28;20036;-32
2023/12/10 17:53:04;;;;;;;8.63;3.70;;;;;;;17.63;56.54;96094.28;10393433;28;20035;-31
2023/12/10 17:58:05;;;;;;;7.25;4.10;;;;;;;17.67;56.29;96090.06;10402515;28;20639;-30
2023/12/10 18:03:05;;;;;;;8.35;3.88;;;;;;;17.66;55.53;96085.84;10399587;28;20412;-30
2023/12/10 18:08:05;;;;;;;6.33;3.87;;;;;;;17.61;56.36;96087.56;10396294;28;20484;-31
2023/12/10 18:13:06;;;;;;;6.00;3.87;;;;;;;17.60;56.44;96086.72;10397452;28;20289;-30
2023/12/10 18:18:08;;;;;;;7.47;4.43;;;;;;;17.60;56.26;96089.25;10399547;28;20033;-31
2023/12/10 18:23:08;;;;;;;6.63;4.18;;;;;;;17.60;56.15;96091.78;10402605;28;20117;-32
2023/12/10 18:28:09;;;;;;;4.90;3.37;;;;;;;17.60;56.24;96111.19;10409439;28;20040;-31
2023/12/10 18:33:09;;;;;;;7.83;3.67;;;;;;;17.59;55.80;96100.22;10408430;28;20042;-30
2023/12/10 18:38:09;;;;;;;4.13;3.13;;;;;;;17.57;55.53;96118.81;10406261;28;20458;-30
2023/12/10 18:43:10;;;;;;;5.43;3.40;;;;;;;17.58;55.12;96082.53;10409678;28;20067;-30
2023/12/10 18:48:11;;;;;;;4.70;3.03;;;;;;;17.56;53.69;96110.38;10404868;28;20038;-31
2023/12/10 18:53:11;;;;;;;4.13;2.72;;;;;;;17.59;53.92;96089.25;10411618;28;20037;-31
2023/12/10 18:58:12;;;;;;;5.93;3.15;;;;;;;17.56;55.23;96080.00;10395721;28;20037;-30
2023/12/10 19:03:12;;;;;;;5.13;3.40;;;;;;;17.60;54.85;96030.19;10399098;28;20503;-31
2023/12/10 19:08:13;;;;;;;4.38;2.80;;;;;;;17.56;54.12;96018.44;10399643;28;20116;-30
2023/12/10 19:13:13;;;;;;;8.07;2.73;;;;;;;17.60;51.10;95993.09;10402407;28;20042;-31
2023/12/10 19:18:14;;;;;;;2.78;1.85;;;;;;;17.51;52.95;95989.78;10404449;28;20289;-30
2023/12/10 19:23:14;;;;;;;5.23;2.80;;;;;;;17.38;53.60;95943.50;10396864;28;20033;-31
2023/12/10 19:28:14;;;;;;;3.93;2.53;;;;;;;17.52;53.40;95981.31;10402014;28;20427;-30
2023/12/10 19:33:15;;;;;;;4.53;2.20;;;;;;;17.53;53.66;95972.88;10398065;28;20307;-31
2023/12/10 19:38:15;;;;;;;9.65;3.22;;;;;;;17.53;54.22;95955.16;10410307;28;20125;-31
2023/12/10 19:43:16;;;;;;;4.20;2.17;;;;;;;17.57;53.01;95949.25;10399167;28;20029;-31
2023/12/10 19:48:16;;;;;;;6.90;2.13;;;;;;;17.55;50.45;95935.75;10397130;28;20040;-32
2023/12/10 19:53:16;;;;;;;2.77;1.40;;;;;;;17.56;49.52;95907.91;10404323;28;20519;-30
2023/12/10 19:58:17;;;;;;;2.93;1.40;;;;;;;17.55;48.89;95905.38;10398765;28;20634;-31
2023/12/10 20:03:17;;;;;;;3.27;1.70;;;;;;;17.54;50.19;95894.44;10398936;28;20037;-30
2023/12/10 20:08:18;;;;;;;2.93;2.00;;;;;;;17.50;49.86;95881.81;10393229;28;20042;-30
2023/12/10 20:13:19;;;;;;;3.92;2.22;;;;;;;17.43;50.27;95875.97;10403651;28;20124;-30
2023/12/10 20:18:20;;;;;;;3.30;1.70;;;;;;;17.48;48.71;95879.28;10386115;28;20540;-30
2023/12/10 20:23:23;;;;;;;2.85;1.50;;;;;;;17.48;47.32;95879.28;10401341;28;20044;-30
2023/12/10 20:28:24;;;;;;;3.33;1.70;;;;;;;17.48;48.17;95875.94;10397894;28;20041;-30
2023/12/10 20:33:25;;;;;;;2.92;1.70;;;;;;;17.48;48.15;95853.16;10390393;28;20103;-31
2023/12/10 20:38:26;;;;;;;4.22;2.47;;;;;;;17.44;49.74;95862.47;10384689;28;20400;-31
2023/12/10 20:43:26;;;;;;;3.60;1.98;;;;;;;17.48;46.29;95838.81;10392134;28;20029;-31
2023/12/10 20:48:27;;;;;;;2.43;1.60;;;;;;;17.47;45.90;95810.97;10399772;28;20396;-32
2023/12/10 20:53:27;;;;;;;2.53;1.40;;;;;;;17.48;47.01;95827.88;10394912;28;20026;-30
2023/12/10 20:58:28;;;;;;;2.00;1.40;;;;;;;17.43;49.72;95829.59;10391656;28;20064;-30
2023/12/10 21:03:28;;;;;;;2.03;1.20;;;;;;;17.43;46.90;95817.78;10399502;28;20175;-30
2023/12/10 21:08:29;;;;;;;3.50;1.67;;;;;;;17.44;46.08;95846.44;10403449;28;20034;-30
2023/12/10 21:13:29;;;;;;;2.57;1.60;;;;;;;17.44;46.03;95846.44;10402359;28;20029;-30
2023/12/10 21:18:29;;;;;;;8.67;3.53;;;;;;;17.43;47.86;95835.50;10400636;28;20025;-30
2023/12/10 21:23:34;;;;;;;4.77;3.13;;;;;;;17.45;48.49;95832.94;10387125;28;20041;-30
2023/12/10 21:28:34;;;;;;;8.80;4.22;;;;;;;17.47;51.54;95816.03;10383766;28;20030;-31
2023/12/10 21:33:35;;;;;;;8.38;4.15;;;;;;;17.46;51.80;95816.91;10399214;28;20037;-30
2023/12/10 21:38:35;;;;;;;5.57;3.43;;;;;;;17.48;50.08;95828.69;10395699;28;20037;-33
2023/12/10 21:43:36;;;;;;;7.30;4.67;;;;;;;17.47;50.25;95821.09;10394056;28;20048;-32
2023/12/10 21:48:36;;;;;;;6.87;4.10;;;;;;;17.47;52.03;95843.88;10386146;28;20094;-31
2023/12/10 21:53:37;;;;;;;5.83;3.57;;;;;;;17.48;51.70;95812.69;10379772;28;20044;-30
2023/12/10 21:58:42;;;;;;;5.25;2.70;;;;;;;17.46;49.48;95794.13;10376948;28;20416;-30
2023/12/10 22:03:44;;;;;;;7.10;2.97;;;;;;;17.45;50.49;95812.69;10388941;28;20030;-31
2023/12/10 22:08:45;;;;;;;6.30;3.00;;;;;;;17.45;50.90;95807.63;10347907;28;1046002;-30
2023/12/10 22:13:46;;;;;;;6.00;3.40;;;;;;;17.45;51.51;95822.81;10388231;28;20516;-31
2023/12/10 22:18:46;;;;;;;10.30;3.20;;;;;;;17.44;52.05;95811.88;10385816;28;20037;-30
2023/12/10 22:23:47;;;;;;;6.73;3.00;;;;;;;17.44;52.21;95800.91;10384121;28;20117;-30
2023/12/10 22:28:48;;;;;;;4.18;3.03;;;;;;;17.42;53.12;95792.50;10377168;28;20278;-30
2023/12/10 22:33:48;;;;;;;5.38;2.80;;;;;;;17.41;52.49;95791.66;10382777;28;20053;-31
2023/12/10 22:38:48;;;;;;;5.13;2.90;;;;;;;17.38;52.79;95811.06;10380108;28;20041;-30
2023/12/10 22:43:49;;;;;;;4.75;2.65;;;;;;;17.38;53.02;95814.47;10383097;28;20302;-31
2023/12/10 22:48:50;;;;;;;4.70;3.10;;;;;;;17.41;52.80;95813.59;10378476;28;20041;-30
2023/12/10 22:53:51;;;;;;;5.22;2.50;;;;;;;17.42;53.45;95813.56;10383743;28;20037;-30
2023/12/10 22:58:52;;;;;;;4.53;2.58;;;;;;;17.44;53.49;95821.13;10377635;28;20065;-30
2023/12/10 23:03:52;;;;;;;4.63;2.77;;;;;;;17.38;52.54;95806.00;10381590;28;20029;-30
2023/12/10 23:08:52;;;;;;;4.37;2.10;;;;;;;17.41;52.64;95822.00;10388539;28;20252;-31
2023/12/10 23:13:53;;;;;;;4.03;2.23;;;;;;;17.43;51.87;95837.19;10387758;28;20085;-31